sensor_id;sensor_type;location;lat;lon;timestamp;temperature;humidity
25504;DHT22;13410;52.114;5.718;2022-09-20T00:01:11;16.00;99.90
25504;DHT22;13410;52.114;5.718;2022-09-20T00:03:40;15.80;99.90
25504;DHT22;13410;52.114;5.718;2022-09-20T00:06:07;15.80;99.90
25504;DHT22;13410;52.114;5.718;2022-09-20T00:08:35;15.90;99.90
25504;DHT22;13410;52.114;5.718;2022-09-20T00:11:04;15.90;99.90
25504;DHT22;13410;52.114;5.718;2022-09-20T00:13:31;16.00;99.90
25504;DHT22;13410;52.114;5.718;2022-09-20T00:15:58;16.00;99.90
25504;DHT22;13410;52.114;5.718;2022-09-20T00:18:24;15.90;99.90
25504;DHT22;13410;52.114;5.718;2022-09-20T00:20:50;15.90;99.90
25504;DHT22;13410;52.114;5.718;2022-09-20T00:23:18;16.00;99.90
25504;DHT22;13410;52.114;5.718;2022-09-20T00:25:44;15.80;99.90
25504;DHT22;13410;52.114;5.718;2022-09-20T00:28:11;15.90;99.90
25504;DHT22;13410;52.114;5.718;2022-09-20T00:30:37;16.00;99.90
25504;DHT22;13410;52.114;5.718;2022-09-20T00:33:03;16.10;99.90
25504;DHT22;13410;52.114;5.718;2022-09-20T00:35:29;15.90;99.90
25504;DHT22;13410;52.114;5.718;2022-09-20T00:37:55;15.90;99.90
25504;DHT22;13410;52.114;5.718;2022-09-20T00:40:22;16.10;99.90
25504;DHT22;13410;52.114;5.718;2022-09-20T00:42:48;16.10;99.90
25504;DHT22;13410;52.114;5.718;2022-09-20T00:45:23;16.20;99.90
25504;DHT22;13410;52.114;5.718;2022-09-20T00:48:26;16.10;99.90
25504;DHT22;13410;52.114;5.718;2022-09-20T00:51:01;16.20;99.90
25504;DHT22;13410;52.114;5.718;2022-09-20T00:53:32;16.20;99.90
25504;DHT22;13410;52.114;5.718;2022-09-20T00:56:16;16.30;99.90
25504;DHT22;13410;52.114;5.718;2022-09-20T00:58:49;16.30;99.90
25504;DHT22;13410;52.114;5.718;2022-09-20T01:01:15;16.30;99.90
25504;DHT22;13410;52.114;5.718;2022-09-20T01:03:41;16.30;99.90
25504;DHT22;13410;52.114;5.718;2022-09-20T01:06:10;16.20;99.90
25504;DHT22;13410;52.114;5.718;2022-09-20T01:08:37;16.30;99.90
25504;DHT22;13410;52.114;5.718;2022-09-20T01:11:03;16.20;99.90
25504;DHT22;13410;52.114;5.718;2022-09-20T01:13:28;16.30;99.90
25504;DHT22;13410;52.114;5.718;2022-09-20T01:15:55;16.30;99.90
25504;DHT22;13410;52.114;5.718;2022-09-20T01:18:23;16.30;99.90
25504;DHT22;13410;52.114;5.718;2022-09-20T01:20:50;16.30;99.90
25504;DHT22;13410;52.114;5.718;2022-09-20T01:31:51;16.20;99.90
25504;DHT22;13410;52.114;5.718;2022-09-20T01:34:23;16.20;99.90
25504;DHT22;13410;52.114;5.718;2022-09-20T01:36:59;16.20;99.90
25504;DHT22;13410;52.114;5.718;2022-09-20T01:42:17;16.10;99.90
25504;DHT22;13410;52.114;5.718;2022-09-20T01:53:38;16.10;99.90
25504;DHT22;13410;52.114;5.718;2022-09-20T02:13:03;16.00;99.90
25504;DHT22;13410;52.114;5.718;2022-09-20T02:16:00;16.00;99.90
25504;DHT22;13410;52.114;5.718;2022-09-20T02:18:55;16.10;99.90
25504;DHT22;13410;52.114;5.718;2022-09-20T02:21:56;16.20;99.90
25504;DHT22;13410;52.114;5.718;2022-09-20T02:24:45;16.10;99.90
25504;DHT22;13410;52.114;5.718;2022-09-20T02:38:57;16.20;99.90
25504;DHT22;13410;52.114;5.718;2022-09-20T02:41:42;16.30;99.90
25504;DHT22;13410;52.114;5.718;2022-09-20T02:47:05;16.30;99.90
25504;DHT22;13410;52.114;5.718;2022-09-20T02:49:55;16.20;99.90
25504;DHT22;13410;52.114;5.718;2022-09-20T02:52:28;16.30;99.90
25504;DHT22;13410;52.114;5.718;2022-09-20T02:55:12;16.20;99.90
25504;DHT22;13410;52.114;5.718;2022-09-20T02:57:54;16.30;99.90
25504;DHT22;13410;52.114;5.718;2022-09-20T03:00:39;16.20;99.90
25504;DHT22;13410;52.114;5.718;2022-09-20T03:06:07;16.30;99.90
25504;DHT22;13410;52.114;5.718;2022-09-20T03:11:42;16.00;99.90
25504;DHT22;13410;52.114;5.718;2022-09-20T03:17:19;15.80;99.90
25504;DHT22;13410;52.114;5.718;2022-09-20T03:44:30;15.80;99.90
25504;DHT22;13410;52.114;5.718;2022-09-20T03:50:36;15.70;99.90
25504;DHT22;13410;52.114;5.718;2022-09-20T03:58:46;15.70;99.90
25504;DHT22;13410;52.114;5.718;2022-09-20T04:09:26;15.60;99.90
25504;DHT22;13410;52.114;5.718;2022-09-20T04:12:10;15.60;99.90
25504;DHT22;13410;52.114;5.718;2022-09-20T04:15:03;15.70;99.90
25504;DHT22;13410;52.114;5.718;2022-09-20T04:25:53;15.60;99.90
25504;DHT22;13410;52.114;5.718;2022-09-20T04:28:31;15.60;99.90
25504;DHT22;13410;52.114;5.718;2022-09-20T04:31:04;15.50;99.90
25504;DHT22;13410;52.114;5.718;2022-09-20T04:33:35;15.50;99.90
25504;DHT22;13410;52.114;5.718;2022-09-20T04:36:53;15.50;99.90
25504;DHT22;13410;52.114;5.718;2022-09-20T04:42:44;15.60;99.90
25504;DHT22;13410;52.114;5.718;2022-09-20T04:53:53;15.70;99.90
25504;DHT22;13410;52.114;5.718;2022-09-20T04:59:29;15.80;99.90
25504;DHT22;13410;52.114;5.718;2022-09-20T05:02:41;15.90;99.90
25504;DHT22;13410;52.114;5.718;2022-09-20T05:05:50;15.90;99.90
25504;DHT22;13410;52.114;5.718;2022-09-20T05:28:18;15.80;99.90
25504;DHT22;13410;52.114;5.718;2022-09-20T05:30:49;15.90;99.90
25504;DHT22;13410;52.114;5.718;2022-09-20T05:33:45;15.70;99.90
25504;DHT22;13410;52.114;5.718;2022-09-20T05:42:54;15.40;99.90
25504;DHT22;13410;52.114;5.718;2022-09-20T05:45:45;15.50;99.90
25504;DHT22;13410;52.114;5.718;2022-09-20T05:54:34;15.70;99.90
25504;DHT22;13410;52.114;5.718;2022-09-20T06:00:17;15.90;99.90
25504;DHT22;13410;52.114;5.718;2022-09-20T06:08:17;16.20;99.90
25504;DHT22;13410;52.114;5.718;2022-09-20T06:11:28;16.20;99.90
25504;DHT22;13410;52.114;5.718;2022-09-20T06:22:51;16.50;99.90
25504;DHT22;13410;52.114;5.718;2022-09-20T06:25:40;16.60;99.90
25504;DHT22;13410;52.114;5.718;2022-09-20T06:28:29;16.60;99.90
25504;DHT22;13410;52.114;5.718;2022-09-20T06:30:57;16.60;99.90
25504;DHT22;13410;52.114;5.718;2022-09-20T06:33:24;16.80;99.90
25504;DHT22;13410;52.114;5.718;2022-09-20T06:38:23;17.00;99.90
25504;DHT22;13410;52.114;5.718;2022-09-20T06:41:10;16.70;99.90
25504;DHT22;13410;52.114;5.718;2022-09-20T06:43:56;16.30;99.90
25504;DHT22;13410;52.114;5.718;2022-09-20T06:46:27;16.30;99.90
25504;DHT22;13410;52.114;5.718;2022-09-20T06:48:54;16.30;99.90
25504;DHT22;13410;52.114;5.718;2022-09-20T06:51:21;16.10;99.90
25504;DHT22;13410;52.114;5.718;2022-09-20T06:53:48;16.10;99.90
25504;DHT22;13410;52.114;5.718;2022-09-20T06:56:24;16.10;99.90
25504;DHT22;13410;52.114;5.718;2022-09-20T06:58:51;16.10;99.90
25504;DHT22;13410;52.114;5.718;2022-09-20T07:01:17;16.20;99.90
25504;DHT22;13410;52.114;5.718;2022-09-20T07:03:43;16.50;99.90
25504;DHT22;13410;52.114;5.718;2022-09-20T07:06:09;16.80;99.90
25504;DHT22;13410;52.114;5.718;2022-09-20T07:08:35;16.90;99.90
25504;DHT22;13410;52.114;5.718;2022-09-20T07:11:11;17.10;99.90
25504;DHT22;13410;52.114;5.718;2022-09-20T07:13:36;17.40;99.90
25504;DHT22;13410;52.114;5.718;2022-09-20T07:16:05;17.50;99.90
25504;DHT22;13410;52.114;5.718;2022-09-20T07:18:31;17.60;99.90
25504;DHT22;13410;52.114;5.718;2022-09-20T07:21:01;17.80;99.90
25504;DHT22;13410;52.114;5.718;2022-09-20T07:23:28;18.00;99.90
25504;DHT22;13410;52.114;5.718;2022-09-20T07:25:55;18.00;99.90
25504;DHT22;13410;52.114;5.718;2022-09-20T07:28:26;18.00;99.90
25504;DHT22;13410;52.114;5.718;2022-09-20T07:30:51;17.80;99.90
25504;DHT22;13410;52.114;5.718;2022-09-20T07:33:17;17.90;99.90
25504;DHT22;13410;52.114;5.718;2022-09-20T07:35:49;18.10;99.90
25504;DHT22;13410;52.114;5.718;2022-09-20T07:38:16;18.20;99.90
25504;DHT22;13410;52.114;5.718;2022-09-20T07:40:42;18.40;99.90
25504;DHT22;13410;52.114;5.718;2022-09-20T07:43:10;18.40;99.90
25504;DHT22;13410;52.114;5.718;2022-09-20T07:45:36;18.40;99.90
25504;DHT22;13410;52.114;5.718;2022-09-20T07:48:05;18.50;99.90
25504;DHT22;13410;52.114;5.718;2022-09-20T07:50:32;18.40;99.90
25504;DHT22;13410;52.114;5.718;2022-09-20T07:52:58;18.40;99.90
25504;DHT22;13410;52.114;5.718;2022-09-20T07:55:23;18.40;99.90
25504;DHT22;13410;52.114;5.718;2022-09-20T07:57:49;18.40;99.90
25504;DHT22;13410;52.114;5.718;2022-09-20T08:00:16;18.40;99.90
25504;DHT22;13410;52.114;5.718;2022-09-20T08:02:42;18.50;99.90
25504;DHT22;13410;52.114;5.718;2022-09-20T08:05:09;18.80;99.90
25504;DHT22;13410;52.114;5.718;2022-09-20T08:07:35;18.90;99.90
25504;DHT22;13410;52.114;5.718;2022-09-20T08:10:01;19.00;99.90
25504;DHT22;13410;52.114;5.718;2022-09-20T08:12:26;19.30;99.90
25504;DHT22;13410;52.114;5.718;2022-09-20T08:14:52;19.30;99.90
25504;DHT22;13410;52.114;5.718;2022-09-20T08:17:18;18.80;99.90
25504;DHT22;13410;52.114;5.718;2022-09-20T08:19:44;18.70;99.90
25504;DHT22;13410;52.114;5.718;2022-09-20T08:22:10;18.80;99.90
25504;DHT22;13410;52.114;5.718;2022-09-20T08:24:37;18.20;99.90
25504;DHT22;13410;52.114;5.718;2022-09-20T08:27:03;18.50;99.90
25504;DHT22;13410;52.114;5.718;2022-09-20T08:29:28;18.50;99.90
25504;DHT22;13410;52.114;5.718;2022-09-20T08:31:54;18.20;99.90
25504;DHT22;13410;52.114;5.718;2022-09-20T08:34:23;18.10;99.90
25504;DHT22;13410;52.114;5.718;2022-09-20T08:36:49;18.10;99.90
25504;DHT22;13410;52.114;5.718;2022-09-20T08:39:16;18.20;99.90
25504;DHT22;13410;52.114;5.718;2022-09-20T08:41:49;18.20;99.90
25504;DHT22;13410;52.114;5.718;2022-09-20T08:44:23;18.10;99.90
25504;DHT22;13410;52.114;5.718;2022-09-20T08:46:54;17.90;99.90
25504;DHT22;13410;52.114;5.718;2022-09-20T08:49:26;18.00;99.90
25504;DHT22;13410;52.114;5.718;2022-09-20T08:51:53;18.10;99.90
25504;DHT22;13410;52.114;5.718;2022-09-20T08:54:19;18.10;99.90
25504;DHT22;13410;52.114;5.718;2022-09-20T08:56:48;18.30;99.90
25504;DHT22;13410;52.114;5.718;2022-09-20T08:59:17;18.30;99.90
25504;DHT22;13410;52.114;5.718;2022-09-20T09:01:48;18.30;99.90
25504;DHT22;13410;52.114;5.718;2022-09-20T09:04:27;18.70;99.90
25504;DHT22;13410;52.114;5.718;2022-09-20T09:06:55;19.10;99.90
25504;DHT22;13410;52.114;5.718;2022-09-20T09:09:25;19.50;99.90
25504;DHT22;13410;52.114;5.718;2022-09-20T09:11:53;19.50;99.90
25504;DHT22;13410;52.114;5.718;2022-09-20T09:14:33;19.60;99.90
25504;DHT22;13410;52.114;5.718;2022-09-20T09:17:35;19.90;99.90
25504;DHT22;13410;52.114;5.718;2022-09-20T09:20:17;20.30;99.90
25504;DHT22;13410;52.114;5.718;2022-09-20T09:22:46;20.70;99.90
25504;DHT22;13410;52.114;5.718;2022-09-20T09:27:55;20.90;99.90
25504;DHT22;13410;52.114;5.718;2022-09-20T09:30:33;21.20;99.90
25504;DHT22;13410;52.114;5.718;2022-09-20T09:35:53;21.40;99.90
25504;DHT22;13410;52.114;5.718;2022-09-20T09:38:22;21.40;99.90
25504;DHT22;13410;52.114;5.718;2022-09-20T09:41:04;21.50;99.90
25504;DHT22;13410;52.114;5.718;2022-09-20T09:43:35;21.70;99.90
25504;DHT22;13410;52.114;5.718;2022-09-20T09:46:22;21.30;99.90
25504;DHT22;13410;52.114;5.718;2022-09-20T09:51:32;21.20;99.90
25504;DHT22;13410;52.114;5.718;2022-09-20T09:53:57;21.00;99.90
25504;DHT22;13410;52.114;5.718;2022-09-20T10:01:57;21.20;99.90
25504;DHT22;13410;52.114;5.718;2022-09-20T10:04:41;20.80;99.90
25504;DHT22;13410;52.114;5.718;2022-09-20T10:10:39;20.70;99.90
25504;DHT22;13410;52.114;5.718;2022-09-20T10:13:31;20.80;99.90
25504;DHT22;13410;52.114;5.718;2022-09-20T10:16:04;20.80;99.90
25504;DHT22;13410;52.114;5.718;2022-09-20T10:27:09;21.20;99.90
25504;DHT22;13410;52.114;5.718;2022-09-20T10:32:26;20.80;99.90
25504;DHT22;13410;52.114;5.718;2022-09-20T10:43:44;20.40;99.90
25504;DHT22;13410;52.114;5.718;2022-09-20T11:02:56;20.90;99.90
25504;DHT22;13410;52.114;5.718;2022-09-20T11:05:39;20.90;99.90
25504;DHT22;13410;52.114;5.718;2022-09-20T11:08:12;21.10;99.90
25504;DHT22;13410;52.114;5.718;2022-09-20T11:10:57;21.20;99.90
25504;DHT22;13410;52.114;5.718;2022-09-20T11:13:46;21.20;99.90
25504;DHT22;13410;52.114;5.718;2022-09-20T11:21:47;21.50;99.90
25504;DHT22;13410;52.114;5.718;2022-09-20T11:26:48;21.60;99.90
25504;DHT22;13410;52.114;5.718;2022-09-20T11:31:53;21.50;99.90
25504;DHT22;13410;52.114;5.718;2022-09-20T11:34:20;21.70;99.90
25504;DHT22;13410;52.114;5.718;2022-09-20T11:36:52;21.80;99.90
25504;DHT22;13410;52.114;5.718;2022-09-20T11:39:28;21.80;99.90
25504;DHT22;13410;52.114;5.718;2022-09-20T11:41:56;21.60;99.90
25504;DHT22;13410;52.114;5.718;2022-09-20T11:44:25;21.60;99.90
25504;DHT22;13410;52.114;5.718;2022-09-20T11:46:57;21.40;99.90
25504;DHT22;13410;52.114;5.718;2022-09-20T11:49:29;21.20;99.90
25504;DHT22;13410;52.114;5.718;2022-09-20T11:57:18;20.60;99.90
25504;DHT22;13410;52.114;5.718;2022-09-20T11:59:51;20.80;99.90
25504;DHT22;13410;52.114;5.718;2022-09-20T12:02:45;21.00;99.90
25504;DHT22;13410;52.114;5.718;2022-09-20T12:07:57;21.40;99.90
25504;DHT22;13410;52.114;5.718;2022-09-20T12:10:29;21.50;99.90
25504;DHT22;13410;52.114;5.718;2022-09-20T12:13:03;21.70;99.90
25504;DHT22;13410;52.114;5.718;2022-09-20T12:15:37;21.50;99.90
25504;DHT22;13410;52.114;5.718;2022-09-20T12:26:06;20.80;99.90
25504;DHT22;13410;52.114;5.718;2022-09-20T12:28:37;20.60;99.90
25504;DHT22;13410;52.114;5.718;2022-09-20T12:39:28;21.80;99.90
25504;DHT22;13410;52.114;5.718;2022-09-20T12:44:40;21.70;99.90
25504;DHT22;13410;52.114;5.718;2022-09-20T12:47:19;21.20;99.90
25504;DHT22;13410;52.114;5.718;2022-09-20T12:55:35;20.00;99.90
25504;DHT22;13410;52.114;5.718;2022-09-20T13:03:33;20.50;99.90
25504;DHT22;13410;52.114;5.718;2022-09-20T13:14:21;20.20;99.90
25504;DHT22;13410;52.114;5.718;2022-09-20T13:16:58;20.40;99.90
25504;DHT22;13410;52.114;5.718;2022-09-20T13:19:46;20.40;99.90
25504;DHT22;13410;52.114;5.718;2022-09-20T13:22:29;20.30;99.90
25504;DHT22;13410;52.114;5.718;2022-09-20T13:25:00;20.30;99.90
25504;DHT22;13410;52.114;5.718;2022-09-20T13:28:13;20.40;99.90
25504;DHT22;13410;52.114;5.718;2022-09-20T13:30:41;20.40;99.90
25504;DHT22;13410;52.114;5.718;2022-09-20T13:35:44;20.70;99.90
25504;DHT22;13410;52.114;5.718;2022-09-20T13:38:11;20.70;99.90
25504;DHT22;13410;52.114;5.718;2022-09-20T13:40:40;20.80;99.90
25504;DHT22;13410;52.114;5.718;2022-09-20T13:43:28;20.50;99.90
25504;DHT22;13410;52.114;5.718;2022-09-20T13:46:05;20.30;99.90
25504;DHT22;13410;52.114;5.718;2022-09-20T13:48:30;20.50;99.90
25504;DHT22;13410;52.114;5.718;2022-09-20T13:50:57;20.60;99.90
25504;DHT22;13410;52.114;5.718;2022-09-20T13:53:24;20.80;99.90
25504;DHT22;13410;52.114;5.718;2022-09-20T13:55:50;20.90;99.90
25504;DHT22;13410;52.114;5.718;2022-09-20T13:58:25;21.00;99.90
25504;DHT22;13410;52.114;5.718;2022-09-20T14:00:57;21.00;99.90
25504;DHT22;13410;52.114;5.718;2022-09-20T14:03:26;20.70;99.90
25504;DHT22;13410;52.114;5.718;2022-09-20T14:05:55;21.00;99.90
25504;DHT22;13410;52.114;5.718;2022-09-20T14:08:28;21.30;99.90
25504;DHT22;13410;52.114;5.718;2022-09-20T14:11:22;21.10;99.90
25504;DHT22;13410;52.114;5.718;2022-09-20T14:13:51;20.90;99.90
25504;DHT22;13410;52.114;5.718;2022-09-20T14:16:19;20.50;99.90
25504;DHT22;13410;52.114;5.718;2022-09-20T14:18:46;20.50;99.90
25504;DHT22;13410;52.114;5.718;2022-09-20T14:21:15;20.70;99.90
25504;DHT22;13410;52.114;5.718;2022-09-20T14:24:04;20.80;99.90
25504;DHT22;13410;52.114;5.718;2022-09-20T14:26:35;20.80;99.90
25504;DHT22;13410;52.114;5.718;2022-09-20T14:29:26;20.60;99.90
25504;DHT22;13410;52.114;5.718;2022-09-20T14:31:54;20.70;99.90
25504;DHT22;13410;52.114;5.718;2022-09-20T14:34:20;20.70;99.90
25504;DHT22;13410;52.114;5.718;2022-09-20T14:36:50;20.70;99.90
25504;DHT22;13410;52.114;5.718;2022-09-20T14:39:17;20.40;99.90
25504;DHT22;13410;52.114;5.718;2022-09-20T14:41:44;20.30;99.90
25504;DHT22;13410;52.114;5.718;2022-09-20T14:44:27;20.20;99.90
25504;DHT22;13410;52.114;5.718;2022-09-20T14:46:54;20.20;99.90
25504;DHT22;13410;52.114;5.718;2022-09-20T14:51:52;20.50;99.90
25504;DHT22;13410;52.114;5.718;2022-09-20T14:54:24;20.40;99.90
25504;DHT22;13410;52.114;5.718;2022-09-20T14:56:51;20.30;99.90
25504;DHT22;13410;52.114;5.718;2022-09-20T15:04:25;20.30;99.90
25504;DHT22;13410;52.114;5.718;2022-09-20T15:06:52;20.30;99.90
25504;DHT22;13410;52.114;5.718;2022-09-20T15:09:19;20.10;99.90
25504;DHT22;13410;52.114;5.718;2022-09-20T15:11:46;20.00;99.90
25504;DHT22;13410;52.114;5.718;2022-09-20T15:14:11;20.00;99.90
25504;DHT22;13410;52.114;5.718;2022-09-20T15:16:37;20.30;99.90
25504;DHT22;13410;52.114;5.718;2022-09-20T15:19:02;19.80;99.90
25504;DHT22;13410;52.114;5.718;2022-09-20T15:21:30;19.80;99.90
25504;DHT22;13410;52.114;5.718;2022-09-20T15:23:56;20.20;99.90
25504;DHT22;13410;52.114;5.718;2022-09-20T15:26:21;20.20;99.90
25504;DHT22;13410;52.114;5.718;2022-09-20T15:28:48;19.90;99.90
25504;DHT22;13410;52.114;5.718;2022-09-20T15:31:13;20.00;99.90
25504;DHT22;13410;52.114;5.718;2022-09-20T15:33:41;19.90;99.90
25504;DHT22;13410;52.114;5.718;2022-09-20T15:36:07;20.00;99.90
25504;DHT22;13410;52.114;5.718;2022-09-20T15:38:33;20.10;99.90
25504;DHT22;13410;52.114;5.718;2022-09-20T15:41:00;20.00;99.90
25504;DHT22;13410;52.114;5.718;2022-09-20T15:43:28;20.10;99.90
25504;DHT22;13410;52.114;5.718;2022-09-20T15:46:00;20.30;99.90
25504;DHT22;13410;52.114;5.718;2022-09-20T15:48:40;20.10;99.90
25504;DHT22;13410;52.114;5.718;2022-09-20T15:51:07;20.10;99.90
25504;DHT22;13410;52.114;5.718;2022-09-20T15:53:43;20.10;99.90
25504;DHT22;13410;52.114;5.718;2022-09-20T15:56:24;20.50;99.90
25504;DHT22;13410;52.114;5.718;2022-09-20T15:58:55;20.50;99.90
25504;DHT22;13410;52.114;5.718;2022-09-20T16:01:25;20.20;99.90
25504;DHT22;13410;52.114;5.718;2022-09-20T16:03:51;20.10;99.90
25504;DHT22;13410;52.114;5.718;2022-09-20T16:06:17;20.30;99.90
25504;DHT22;13410;52.114;5.718;2022-09-20T16:08:43;20.20;99.90
25504;DHT22;13410;52.114;5.718;2022-09-20T16:11:12;20.30;99.90
25504;DHT22;13410;52.114;5.718;2022-09-20T16:13:38;20.30;99.90
25504;DHT22;13410;52.114;5.718;2022-09-20T16:16:05;20.10;99.90
25504;DHT22;13410;52.114;5.718;2022-09-20T16:18:31;20.00;99.90
25504;DHT22;13410;52.114;5.718;2022-09-20T16:21:17;19.70;99.90
25504;DHT22;13410;52.114;5.718;2022-09-20T16:23:48;19.70;99.90
25504;DHT22;13410;52.114;5.718;2022-09-20T16:26:14;19.70;99.90
25504;DHT22;13410;52.114;5.718;2022-09-20T16:28:40;19.70;99.90
25504;DHT22;13410;52.114;5.718;2022-09-20T16:31:22;19.50;99.90
25504;DHT22;13410;52.114;5.718;2022-09-20T16:33:51;19.30;99.90
25504;DHT22;13410;52.114;5.718;2022-09-20T16:36:17;19.10;99.90
25504;DHT22;13410;52.114;5.718;2022-09-20T16:38:43;19.40;99.90
25504;DHT22;13410;52.114;5.718;2022-09-20T16:41:09;19.40;99.90
25504;DHT22;13410;52.114;5.718;2022-09-20T16:43:36;19.60;99.90
25504;DHT22;13410;52.114;5.718;2022-09-20T16:46:02;19.60;99.90
25504;DHT22;13410;52.114;5.718;2022-09-20T16:48:29;19.30;99.90
25504;DHT22;13410;52.114;5.718;2022-09-20T16:50:56;19.30;99.90
25504;DHT22;13410;52.114;5.718;2022-09-20T16:53:25;19.30;99.90
25504;DHT22;13410;52.114;5.718;2022-09-20T16:55:50;19.40;99.90
25504;DHT22;13410;52.114;5.718;2022-09-20T16:58:16;19.40;99.90
25504;DHT22;13410;52.114;5.718;2022-09-20T17:00:42;19.50;99.90
25504;DHT22;13410;52.114;5.718;2022-09-20T17:03:08;19.40;99.90
25504;DHT22;13410;52.114;5.718;2022-09-20T17:05:33;19.60;99.90
25504;DHT22;13410;52.114;5.718;2022-09-20T17:07:59;19.70;99.90
25504;DHT22;13410;52.114;5.718;2022-09-20T17:10:25;19.60;99.90
25504;DHT22;13410;52.114;5.718;2022-09-20T17:12:52;19.50;99.90
25504;DHT22;13410;52.114;5.718;2022-09-20T17:15:22;19.50;99.90
25504;DHT22;13410;52.114;5.718;2022-09-20T17:17:48;19.50;99.90
25504;DHT22;13410;52.114;5.718;2022-09-20T17:20:14;19.40;99.90
25504;DHT22;13410;52.114;5.718;2022-09-20T17:22:40;19.50;99.90
25504;DHT22;13410;52.114;5.718;2022-09-20T17:25:07;19.50;99.90
25504;DHT22;13410;52.114;5.718;2022-09-20T17:27:33;19.40;99.90
25504;DHT22;13410;52.114;5.718;2022-09-20T17:30:00;19.30;99.90
25504;DHT22;13410;52.114;5.718;2022-09-20T17:32:27;19.30;99.90
25504;DHT22;13410;52.114;5.718;2022-09-20T17:34:53;19.30;99.90
25504;DHT22;13410;52.114;5.718;2022-09-20T17:37:18;19.30;99.90
25504;DHT22;13410;52.114;5.718;2022-09-20T17:39:44;19.30;99.90
25504;DHT22;13410;52.114;5.718;2022-09-20T17:42:10;19.40;99.90
25504;DHT22;13410;52.114;5.718;2022-09-20T17:44:35;19.20;99.90
25504;DHT22;13410;52.114;5.718;2022-09-20T17:47:02;19.30;99.90
25504;DHT22;13410;52.114;5.718;2022-09-20T17:49:27;19.20;99.90
25504;DHT22;13410;52.114;5.718;2022-09-20T17:51:55;19.10;99.90
25504;DHT22;13410;52.114;5.718;2022-09-20T17:54:21;19.30;99.90
25504;DHT22;13410;52.114;5.718;2022-09-20T17:56:50;19.30;99.90
25504;DHT22;13410;52.114;5.718;2022-09-20T17:59:17;19.00;99.90
25504;DHT22;13410;52.114;5.718;2022-09-20T18:01:45;18.80;99.90
25504;DHT22;13410;52.114;5.718;2022-09-20T18:04:12;18.60;99.90
25504;DHT22;13410;52.114;5.718;2022-09-20T18:06:45;18.50;99.90
25504;DHT22;13410;52.114;5.718;2022-09-20T18:09:15;18.70;99.90
25504;DHT22;13410;52.114;5.718;2022-09-20T18:11:46;18.80;99.90
25504;DHT22;13410;52.114;5.718;2022-09-20T18:14:17;18.60;99.90
25504;DHT22;13410;52.114;5.718;2022-09-20T18:16:44;18.50;99.90
25504;DHT22;13410;52.114;5.718;2022-09-20T18:19:11;18.40;99.90
25504;DHT22;13410;52.114;5.718;2022-09-20T18:21:37;18.40;99.90
25504;DHT22;13410;52.114;5.718;2022-09-20T18:24:08;18.30;99.90
25504;DHT22;13410;52.114;5.718;2022-09-20T18:26:34;18.70;99.90
25504;DHT22;13410;52.114;5.718;2022-09-20T18:29:11;18.50;99.90
25504;DHT22;13410;52.114;5.718;2022-09-20T18:31:40;18.10;99.90
25504;DHT22;13410;52.114;5.718;2022-09-20T18:36:40;18.10;99.90
25504;DHT22;13410;52.114;5.718;2022-09-20T18:39:06;18.20;99.90
25504;DHT22;13410;52.114;5.718;2022-09-20T18:41:34;18.10;99.90
25504;DHT22;13410;52.114;5.718;2022-09-20T18:44:01;18.00;99.90
25504;DHT22;13410;52.114;5.718;2022-09-20T18:46:29;17.90;99.90
25504;DHT22;13410;52.114;5.718;2022-09-20T18:48:57;17.90;99.90
25504;DHT22;13410;52.114;5.718;2022-09-20T18:51:24;17.70;99.90
25504;DHT22;13410;52.114;5.718;2022-09-20T18:53:53;17.50;99.90
25504;DHT22;13410;52.114;5.718;2022-09-20T18:58:58;17.30;99.90
25504;DHT22;13410;52.114;5.718;2022-09-20T19:06:43;17.00;99.90
25504;DHT22;13410;52.114;5.718;2022-09-20T19:09:44;16.90;99.90
25504;DHT22;13410;52.114;5.718;2022-09-20T19:12:38;17.10;99.90
25504;DHT22;13410;52.114;5.718;2022-09-20T19:17:55;16.60;99.90
25504;DHT22;13410;52.114;5.718;2022-09-20T19:25:40;16.70;99.90
25504;DHT22;13410;52.114;5.718;2022-09-20T19:28:10;16.60;99.90
25504;DHT22;13410;52.114;5.718;2022-09-20T19:30:36;16.60;99.90
25504;DHT22;13410;52.114;5.718;2022-09-20T19:33:04;16.80;99.90
25504;DHT22;13410;52.114;5.718;2022-09-20T19:35:34;16.60;99.90
25504;DHT22;13410;52.114;5.718;2022-09-20T19:46:39;16.20;99.90
25504;DHT22;13410;52.114;5.718;2022-09-20T19:49:13;16.40;99.90
25504;DHT22;13410;52.114;5.718;2022-09-20T19:51:40;16.50;99.90
25504;DHT22;13410;52.114;5.718;2022-09-20T19:54:09;16.50;99.90
25504;DHT22;13410;52.114;5.718;2022-09-20T19:56:56;16.60;99.90
25504;DHT22;13410;52.114;5.718;2022-09-20T19:59:24;16.50;99.90
25504;DHT22;13410;52.114;5.718;2022-09-20T20:01:51;16.20;99.90
25504;DHT22;13410;52.114;5.718;2022-09-20T20:04:17;15.90;99.90
25504;DHT22;13410;52.114;5.718;2022-09-20T20:09:24;16.00;99.90
25504;DHT22;13410;52.114;5.718;2022-09-20T20:15:46;16.10;99.90
25504;DHT22;13410;52.114;5.718;2022-09-20T20:18:18;15.90;99.90
25504;DHT22;13410;52.114;5.718;2022-09-20T20:20:48;15.90;99.90
25504;DHT22;13410;52.114;5.718;2022-09-20T20:26:07;16.20;99.90
25504;DHT22;13410;52.114;5.718;2022-09-20T20:28:35;16.10;99.90
25504;DHT22;13410;52.114;5.718;2022-09-20T20:31:01;16.30;99.90
25504;DHT22;13410;52.114;5.718;2022-09-20T20:33:28;16.30;99.90
25504;DHT22;13410;52.114;5.718;2022-09-20T20:35:54;16.20;99.90
25504;DHT22;13410;52.114;5.718;2022-09-20T20:38:21;16.20;99.90
25504;DHT22;13410;52.114;5.718;2022-09-20T20:41:01;15.90;99.90
25504;DHT22;13410;52.114;5.718;2022-09-20T20:43:33;16.20;99.90
25504;DHT22;13410;52.114;5.718;2022-09-20T20:46:01;16.40;99.90
25504;DHT22;13410;52.114;5.718;2022-09-20T20:48:26;16.20;99.90
25504;DHT22;13410;52.114;5.718;2022-09-20T20:51:03;16.20;99.90
25504;DHT22;13410;52.114;5.718;2022-09-20T20:53:33;16.40;99.90
25504;DHT22;13410;52.114;5.718;2022-09-20T20:56:01;16.60;99.90
25504;DHT22;13410;52.114;5.718;2022-09-20T20:58:29;16.60;99.90
25504;DHT22;13410;52.114;5.718;2022-09-20T21:01:06;16.60;99.90
25504;DHT22;13410;52.114;5.718;2022-09-20T21:03:32;16.30;99.90
25504;DHT22;13410;52.114;5.718;2022-09-20T21:05:59;16.20;99.90
25504;DHT22;13410;52.114;5.718;2022-09-20T21:08:36;16.50;99.90
25504;DHT22;13410;52.114;5.718;2022-09-20T21:11:04;16.30;99.90
25504;DHT22;13410;52.114;5.718;2022-09-20T21:13:30;16.00;99.90
25504;DHT22;13410;52.114;5.718;2022-09-20T21:16:18;16.00;99.90
25504;DHT22;13410;52.114;5.718;2022-09-20T21:18:46;16.30;99.90
25504;DHT22;13410;52.114;5.718;2022-09-20T21:21:21;16.20;99.90
25504;DHT22;13410;52.114;5.718;2022-09-20T21:23:49;16.10;99.90
25504;DHT22;13410;52.114;5.718;2022-09-20T21:26:16;16.00;99.90
25504;DHT22;13410;52.114;5.718;2022-09-20T21:28:44;16.10;99.90
25504;DHT22;13410;52.114;5.718;2022-09-20T21:31:11;16.10;99.90
25504;DHT22;13410;52.114;5.718;2022-09-20T21:33:41;16.20;99.90